sensor_id;sensor_type;location;lat;lon;timestamp;temperature;humidity
83770;DHT22;73763;48.936;9.300;2024-02-16T00:00:49;10.50;94.10
83770;DHT22;73763;48.936;9.300;2024-02-16T00:03:17;10.60;93.80
83770;DHT22;73763;48.936;9.300;2024-02-16T00:05:43;10.60;93.70
83770;DHT22;73763;48.936;9.300;2024-02-16T00:08:11;10.60;93.80
83770;DHT22;73763;48.936;9.300;2024-02-16T00:10:39;10.50;94.10
83770;DHT22;73763;48.936;9.300;2024-02-16T00:13:05;10.30;94.20
83770;DHT22;73763;48.936;9.300;2024-02-16T00:15:30;10.40;94.20
83770;DHT22;73763;48.936;9.300;2024-02-16T00:17:56;10.30;94.30
83770;DHT22;73763;48.936;9.300;2024-02-16T00:20:22;10.40;94.30
83770;DHT22;73763;48.936;9.300;2024-02-16T00:22:47;10.40;94.30
83770;DHT22;73763;48.936;9.300;2024-02-16T00:25:16;10.50;94.20
83770;DHT22;73763;48.936;9.300;2024-02-16T00:27:44;10.40;94.20
83770;DHT22;73763;48.936;9.300;2024-02-16T00:30:10;10.40;94.30
83770;DHT22;73763;48.936;9.300;2024-02-16T00:32:35;10.40;94.30
83770;DHT22;73763;48.936;9.300;2024-02-16T00:35:01;10.40;94.30
83770;DHT22;73763;48.936;9.300;2024-02-16T00:37:27;10.40;94.30
83770;DHT22;73763;48.936;9.300;2024-02-16T00:39:52;10.50;94.20
83770;DHT22;73763;48.936;9.300;2024-02-16T00:42:18;10.50;94.10
83770;DHT22;73763;48.936;9.300;2024-02-16T00:44:43;10.40;94.00
83770;DHT22;73763;48.936;9.300;2024-02-16T00:47:09;10.50;94.00
83770;DHT22;73763;48.936;9.300;2024-02-16T00:49:35;10.50;94.10
83770;DHT22;73763;48.936;9.300;2024-02-16T00:52:00;10.50;94.10
83770;DHT22;73763;48.936;9.300;2024-02-16T00:54:26;10.50;94.10
83770;DHT22;73763;48.936;9.300;2024-02-16T00:56:52;10.60;94.10
83770;DHT22;73763;48.936;9.300;2024-02-16T00:59:17;10.50;94.10
83770;DHT22;73763;48.936;9.300;2024-02-16T01:01:43;10.50;94.10
83770;DHT22;73763;48.936;9.300;2024-02-16T01:04:09;10.50;94.00
83770;DHT22;73763;48.936;9.300;2024-02-16T01:06:34;10.60;94.00
83770;DHT22;73763;48.936;9.300;2024-02-16T01:09:02;10.60;94.00
83770;DHT22;73763;48.936;9.300;2024-02-16T01:11:28;10.50;94.10
83770;DHT22;73763;48.936;9.300;2024-02-16T01:13:53;10.50;94.10
83770;DHT22;73763;48.936;9.300;2024-02-16T01:16:19;10.60;94.00
83770;DHT22;73763;48.936;9.300;2024-02-16T01:18:45;10.60;93.70
83770;DHT22;73763;48.936;9.300;2024-02-16T01:21:11;10.60;93.80
83770;DHT22;73763;48.936;9.300;2024-02-16T01:23:36;10.70;93.60
83770;DHT22;73763;48.936;9.300;2024-02-16T01:26:02;10.70;93.60
83770;DHT22;73763;48.936;9.300;2024-02-16T01:28:28;10.70;93.40
83770;DHT22;73763;48.936;9.300;2024-02-16T01:30:53;10.80;93.30
83770;DHT22;73763;48.936;9.300;2024-02-16T01:33:19;10.80;93.20
83770;DHT22;73763;48.936;9.300;2024-02-16T01:35:45;10.80;93.20
83770;DHT22;73763;48.936;9.300;2024-02-16T01:38:11;10.80;93.20
83770;DHT22;73763;48.936;9.300;2024-02-16T01:40:44;10.80;93.30
83770;DHT22;73763;48.936;9.300;2024-02-16T01:43:12;10.70;93.80
83770;DHT22;73763;48.936;9.300;2024-02-16T01:45:38;10.60;94.10
83770;DHT22;73763;48.936;9.300;2024-02-16T01:48:06;10.50;94.60
83770;DHT22;73763;48.936;9.300;2024-02-16T01:50:32;10.40;95.30
83770;DHT22;73763;48.936;9.300;2024-02-16T01:52:59;10.30;95.00
83770;DHT22;73763;48.936;9.300;2024-02-16T01:55:25;10.20;95.10
83770;DHT22;73763;48.936;9.300;2024-02-16T01:57:51;10.10;95.40
83770;DHT22;73763;48.936;9.300;2024-02-16T02:00:19;10.00;95.50
83770;DHT22;73763;48.936;9.300;2024-02-16T02:02:46;10.00;95.70
83770;DHT22;73763;48.936;9.300;2024-02-16T02:05:12;9.90;95.80
83770;DHT22;73763;48.936;9.300;2024-02-16T02:07:38;9.90;96.30
83770;DHT22;73763;48.936;9.300;2024-02-16T02:10:06;9.80;96.20
83770;DHT22;73763;48.936;9.300;2024-02-16T02:12:35;9.80;96.50
83770;DHT22;73763;48.936;9.300;2024-02-16T02:15:06;9.70;96.70
83770;DHT22;73763;48.936;9.300;2024-02-16T02:17:31;9.70;96.90
83770;DHT22;73763;48.936;9.300;2024-02-16T02:19:57;9.60;96.90
83770;DHT22;73763;48.936;9.300;2024-02-16T02:22:23;9.60;96.80
83770;DHT22;73763;48.936;9.300;2024-02-16T02:24:48;9.70;96.80
83770;DHT22;73763;48.936;9.300;2024-02-16T02:27:14;9.60;96.90
83770;DHT22;73763;48.936;9.300;2024-02-16T02:29:41;9.60;96.80
83770;DHT22;73763;48.936;9.300;2024-02-16T02:32:07;9.80;96.90
83770;DHT22;73763;48.936;9.300;2024-02-16T02:34:33;9.60;97.10
83770;DHT22;73763;48.936;9.300;2024-02-16T02:37:01;9.60;97.20
83770;DHT22;73763;48.936;9.300;2024-02-16T02:39:27;9.60;97.10
83770;DHT22;73763;48.936;9.300;2024-02-16T02:41:53;9.60;97.00
83770;DHT22;73763;48.936;9.300;2024-02-16T02:44:26;9.60;97.00
83770;DHT22;73763;48.936;9.300;2024-02-16T02:46:52;9.70;97.10
83770;DHT22;73763;48.936;9.300;2024-02-16T02:49:18;9.70;97.20
83770;DHT22;73763;48.936;9.300;2024-02-16T02:51:44;9.60;97.30
83770;DHT22;73763;48.936;9.300;2024-02-16T02:54:10;9.60;97.30
83770;DHT22;73763;48.936;9.300;2024-02-16T02:56:35;9.60;97.40
83770;DHT22;73763;48.936;9.300;2024-02-16T02:59:01;9.50;97.40
83770;DHT22;73763;48.936;9.300;2024-02-16T03:01:27;9.50;97.40
83770;DHT22;73763;48.936;9.300;2024-02-16T03:04:00;9.60;97.50
83770;DHT22;73763;48.936;9.300;2024-02-16T03:06:28;9.60;97.60
83770;DHT22;73763;48.936;9.300;2024-02-16T03:08:53;9.60;97.90
83770;DHT22;73763;48.936;9.300;2024-02-16T03:11:19;9.60;97.80
83770;DHT22;73763;48.936;9.300;2024-02-16T03:13:45;9.60;97.90
83770;DHT22;73763;48.936;9.300;2024-02-16T03:16:11;9.60;98.00
83770;DHT22;73763;48.936;9.300;2024-02-16T03:18:36;9.50;98.00
83770;DHT22;73763;48.936;9.300;2024-02-16T03:21:02;9.40;98.20
83770;DHT22;73763;48.936;9.300;2024-02-16T03:23:31;9.30;98.50
83770;DHT22;73763;48.936;9.300;2024-02-16T03:25:56;9.30;98.60
83770;DHT22;73763;48.936;9.300;2024-02-16T03:28:22;9.30;98.60
83770;DHT22;73763;48.936;9.300;2024-02-16T03:30:48;9.30;98.90
83770;DHT22;73763;48.936;9.300;2024-02-16T03:33:13;9.20;98.60
83770;DHT22;73763;48.936;9.300;2024-02-16T03:35:39;9.20;98.50
83770;DHT22;73763;48.936;9.300;2024-02-16T03:38:05;9.20;98.50
83770;DHT22;73763;48.936;9.300;2024-02-16T03:40:31;9.20;98.50
83770;DHT22;73763;48.936;9.300;2024-02-16T03:42:56;9.20;98.60
83770;DHT22;73763;48.936;9.300;2024-02-16T03:45:22;9.20;98.70
83770;DHT22;73763;48.936;9.300;2024-02-16T03:47:48;9.10;98.60
83770;DHT22;73763;48.936;9.300;2024-02-16T03:50:14;9.20;98.70
83770;DHT22;73763;48.936;9.300;2024-02-16T03:52:40;9.10;98.90
83770;DHT22;73763;48.936;9.300;2024-02-16T03:55:06;9.00;99.00
83770;DHT22;73763;48.936;9.300;2024-02-16T03:57:32;9.00;99.10
83770;DHT22;73763;48.936;9.300;2024-02-16T03:59:58;8.90;99.20
83770;DHT22;73763;48.936;9.300;2024-02-16T04:02:23;8.90;99.30
83770;DHT22;73763;48.936;9.300;2024-02-16T04:04:49;8.80;99.40
83770;DHT22;73763;48.936;9.300;2024-02-16T04:07:15;8.80;99.40
83770;DHT22;73763;48.936;9.300;2024-02-16T04:09:41;8.60;99.50
83770;DHT22;73763;48.936;9.300;2024-02-16T04:12:06;8.70;99.60
83770;DHT22;73763;48.936;9.300;2024-02-16T04:14:32;8.70;99.80
83770;DHT22;73763;48.936;9.300;2024-02-16T04:16:58;8.60;99.80
83770;DHT22;73763;48.936;9.300;2024-02-16T04:19:25;8.60;99.80
83770;DHT22;73763;48.936;9.300;2024-02-16T04:21:51;8.60;99.90
83770;DHT22;73763;48.936;9.300;2024-02-16T04:24:17;8.70;99.70
83770;DHT22;73763;48.936;9.300;2024-02-16T04:26:42;8.70;99.60
83770;DHT22;73763;48.936;9.300;2024-02-16T04:29:08;8.80;99.40
83770;DHT22;73763;48.936;9.300;2024-02-16T04:31:33;8.80;99.40
83770;DHT22;73763;48.936;9.300;2024-02-16T04:33:59;8.80;99.40
83770;DHT22;73763;48.936;9.300;2024-02-16T04:36:24;8.80;99.40
83770;DHT22;73763;48.936;9.300;2024-02-16T04:38:50;8.80;99.30
83770;DHT22;73763;48.936;9.300;2024-02-16T04:41:16;8.90;99.40
83770;DHT22;73763;48.936;9.300;2024-02-16T04:43:42;8.90;99.20
83770;DHT22;73763;48.936;9.300;2024-02-16T04:46:14;9.00;99.60
83770;DHT22;73763;48.936;9.300;2024-02-16T04:48:42;9.10;99.00
83770;DHT22;73763;48.936;9.300;2024-02-16T04:51:07;9.10;99.00
83770;DHT22;73763;48.936;9.300;2024-02-16T04:53:33;9.00;99.10
83770;DHT22;73763;48.936;9.300;2024-02-16T04:55:58;9.10;99.00
83770;DHT22;73763;48.936;9.300;2024-02-16T04:58:27;9.10;99.10
83770;DHT22;73763;48.936;9.300;2024-02-16T05:00:53;9.20;99.10
83770;DHT22;73763;48.936;9.300;2024-02-16T05:03:19;9.10;99.00
83770;DHT22;73763;48.936;9.300;2024-02-16T05:05:44;9.10;99.10
83770;DHT22;73763;48.936;9.300;2024-02-16T05:08:10;9.10;99.10
83770;DHT22;73763;48.936;9.300;2024-02-16T05:10:35;9.10;99.20
83770;DHT22;73763;48.936;9.300;2024-02-16T05:13:01;9.10;99.20
83770;DHT22;73763;48.936;9.300;2024-02-16T05:15:26;9.20;99.10
83770;DHT22;73763;48.936;9.300;2024-02-16T05:17:52;9.20;99.10
83770;DHT22;73763;48.936;9.300;2024-02-16T05:20:18;9.20;99.00
83770;DHT22;73763;48.936;9.300;2024-02-16T05:22:44;9.10;99.00
83770;DHT22;73763;48.936;9.300;2024-02-16T05:25:10;9.10;99.10
83770;DHT22;73763;48.936;9.300;2024-02-16T05:27:36;9.00;99.20
83770;DHT22;73763;48.936;9.300;2024-02-16T05:30:05;9.00;99.10
83770;DHT22;73763;48.936;9.300;2024-02-16T05:32:31;9.00;99.30
83770;DHT22;73763;48.936;9.300;2024-02-16T05:34:56;8.90;99.30
83770;DHT22;73763;48.936;9.300;2024-02-16T05:37:22;9.00;99.50
83770;DHT22;73763;48.936;9.300;2024-02-16T05:39:47;9.00;99.30
83770;DHT22;73763;48.936;9.300;2024-02-16T05:42:13;9.00;99.30
83770;DHT22;73763;48.936;9.300;2024-02-16T05:44:39;9.00;99.30
83770;DHT22;73763;48.936;9.300;2024-02-16T05:47:04;8.90;99.30
83770;DHT22;73763;48.936;9.300;2024-02-16T05:49:30;8.90;99.20
83770;DHT22;73763;48.936;9.300;2024-02-16T05:51:55;8.90;99.30
83770;DHT22;73763;48.936;9.300;2024-02-16T05:54:21;8.90;99.30
83770;DHT22;73763;48.936;9.300;2024-02-16T05:56:47;9.00;99.40
83770;DHT22;73763;48.936;9.300;2024-02-16T05:59:12;8.90;99.30
83770;DHT22;73763;48.936;9.300;2024-02-16T06:01:40;8.90;99.20
83770;DHT22;73763;48.936;9.300;2024-02-16T06:04:05;8.90;99.20
83770;DHT22;73763;48.936;9.300;2024-02-16T06:06:31;8.90;99.30
83770;DHT22;73763;48.936;9.300;2024-02-16T06:08:57;8.90;99.30
83770;DHT22;73763;48.936;9.300;2024-02-16T06:11:22;8.80;99.20
83770;DHT22;73763;48.936;9.300;2024-02-16T06:13:48;8.90;99.20
83770;DHT22;73763;48.936;9.300;2024-02-16T06:16:13;8.80;99.20
83770;DHT22;73763;48.936;9.300;2024-02-16T06:18:39;8.80;99.30
83770;DHT22;73763;48.936;9.300;2024-02-16T06:21:04;8.80;99.30
83770;DHT22;73763;48.936;9.300;2024-02-16T06:23:30;8.80;99.30
83770;DHT22;73763;48.936;9.300;2024-02-16T06:25:56;8.80;99.20
83770;DHT22;73763;48.936;9.300;2024-02-16T06:28:21;8.80;99.10
83770;DHT22;73763;48.936;9.300;2024-02-16T06:30:47;8.80;99.00
83770;DHT22;73763;48.936;9.300;2024-02-16T06:33:13;8.80;99.00
83770;DHT22;73763;48.936;9.300;2024-02-16T06:35:39;8.80;99.00
83770;DHT22;73763;48.936;9.300;2024-02-16T06:38:05;8.80;99.00
83770;DHT22;73763;48.936;9.300;2024-02-16T06:40:30;8.90;99.00
83770;DHT22;73763;48.936;9.300;2024-02-16T06:42:56;8.80;99.10
83770;DHT22;73763;48.936;9.300;2024-02-16T06:45:21;8.80;99.20
83770;DHT22;73763;48.936;9.300;2024-02-16T06:47:47;8.80;99.20
83770;DHT22;73763;48.936;9.300;2024-02-16T06:50:13;8.80;99.00
83770;DHT22;73763;48.936;9.300;2024-02-16T06:52:38;8.90;98.90
83770;DHT22;73763;48.936;9.300;2024-02-16T06:55:04;9.00;98.80
83770;DHT22;73763;48.936;9.300;2024-02-16T06:57:31;9.00;98.80
83770;DHT22;73763;48.936;9.300;2024-02-16T06:59:57;9.00;98.60
83770;DHT22;73763;48.936;9.300;2024-02-16T07:02:22;9.00;98.60
83770;DHT22;73763;48.936;9.300;2024-02-16T07:04:48;9.00;98.70
83770;DHT22;73763;48.936;9.300;2024-02-16T07:07:14;9.00;98.80
83770;DHT22;73763;48.936;9.300;2024-02-16T07:09:40;9.10;98.80
83770;DHT22;73763;48.936;9.300;2024-02-16T07:12:06;9.00;98.90
83770;DHT22;73763;48.936;9.300;2024-02-16T07:14:32;9.00;99.00
83770;DHT22;73763;48.936;9.300;2024-02-16T07:16:58;9.00;99.10
83770;DHT22;73763;48.936;9.300;2024-02-16T07:19:26;9.10;99.00
83770;DHT22;73763;48.936;9.300;2024-02-16T07:21:52;9.10;98.80
83770;DHT22;73763;48.936;9.300;2024-02-16T07:24:17;9.20;98.70
83770;DHT22;73763;48.936;9.300;2024-02-16T07:26:44;9.30;98.60
83770;DHT22;73763;48.936;9.300;2024-02-16T07:29:09;9.40;98.50
83770;DHT22;73763;48.936;9.300;2024-02-16T07:31:35;9.50;98.40
83770;DHT22;73763;48.936;9.300;2024-02-16T07:34:01;9.40;98.30
83770;DHT22;73763;48.936;9.300;2024-02-16T07:36:27;9.40;98.40
83770;DHT22;73763;48.936;9.300;2024-02-16T07:38:55;9.50;98.40
83770;DHT22;73763;48.936;9.300;2024-02-16T07:41:21;9.50;98.50
83770;DHT22;73763;48.936;9.300;2024-02-16T07:43:46;9.50;98.30
83770;DHT22;73763;48.936;9.300;2024-02-16T07:46:12;9.60;98.20
83770;DHT22;73763;48.936;9.300;2024-02-16T07:48:37;9.60;98.00
83770;DHT22;73763;48.936;9.300;2024-02-16T07:51:03;9.60;97.90
83770;DHT22;73763;48.936;9.300;2024-02-16T07:53:30;9.70;97.70
83770;DHT22;73763;48.936;9.300;2024-02-16T07:55:56;9.80;97.50
83770;DHT22;73763;48.936;9.300;2024-02-16T07:58:22;9.90;97.40
83770;DHT22;73763;48.936;9.300;2024-02-16T08:00:47;9.90;97.30
83770;DHT22;73763;48.936;9.300;2024-02-16T08:03:13;10.00;97.10
83770;DHT22;73763;48.936;9.300;2024-02-16T08:05:38;10.00;97.00
83770;DHT22;73763;48.936;9.300;2024-02-16T08:08:04;10.10;96.80
83770;DHT22;73763;48.936;9.300;2024-02-16T08:10:29;10.20;96.70
83770;DHT22;73763;48.936;9.300;2024-02-16T08:12:55;10.40;96.40
83770;DHT22;73763;48.936;9.300;2024-02-16T08:15:20;10.50;96.20
83770;DHT22;73763;48.936;9.300;2024-02-16T08:17:46;10.60;96.00
83770;DHT22;73763;48.936;9.300;2024-02-16T08:20:11;10.90;95.70
83770;DHT22;73763;48.936;9.300;2024-02-16T08:22:37;11.10;95.10
83770;DHT22;73763;48.936;9.300;2024-02-16T08:25:02;11.50;94.40
83770;DHT22;73763;48.936;9.300;2024-02-16T08:27:28;12.00;93.60
83770;DHT22;73763;48.936;9.300;2024-02-16T08:29:53;12.90;92.30
83770;DHT22;73763;48.936;9.300;2024-02-16T08:32:19;14.20;90.10
83770;DHT22;73763;48.936;9.300;2024-02-16T08:34:44;15.60;85.10
83770;DHT22;73763;48.936;9.300;2024-02-16T08:37:10;17.30;77.40
83770;DHT22;73763;48.936;9.300;2024-02-16T08:39:37;19.10;70.00
83770;DHT22;73763;48.936;9.300;2024-02-16T08:42:03;20.90;59.70
83770;DHT22;73763;48.936;9.300;2024-02-16T08:44:29;21.70;54.90
83770;DHT22;73763;48.936;9.300;2024-02-16T08:46:54;21.70;54.10
83770;DHT22;73763;48.936;9.300;2024-02-16T08:49:20;21.30;54.70
83770;DHT22;73763;48.936;9.300;2024-02-16T08:51:47;21.60;54.20
83770;DHT22;73763;48.936;9.300;2024-02-16T08:54:13;22.00;53.10
83770;DHT22;73763;48.936;9.300;2024-02-16T08:56:38;22.40;52.00
83770;DHT22;73763;48.936;9.300;2024-02-16T08:59:04;22.60;51.20
83770;DHT22;73763;48.936;9.300;2024-02-16T09:01:33;22.60;49.80
83770;DHT22;73763;48.936;9.300;2024-02-16T09:03:59;22.50;50.60
83770;DHT22;73763;48.936;9.300;2024-02-16T09:06:24;22.10;52.40
83770;DHT22;73763;48.936;9.300;2024-02-16T09:08:50;21.90;51.30
83770;DHT22;73763;48.936;9.300;2024-02-16T09:11:16;21.70;51.40
83770;DHT22;73763;48.936;9.300;2024-02-16T09:13:41;22.40;50.90
83770;DHT22;73763;48.936;9.300;2024-02-16T09:16:07;22.60;50.40
83770;DHT22;73763;48.936;9.300;2024-02-16T09:18:33;23.30;49.00
83770;DHT22;73763;48.936;9.300;2024-02-16T09:20:59;23.00;46.60
83770;DHT22;73763;48.936;9.300;2024-02-16T09:23:24;22.00;47.70
83770;DHT22;73763;48.936;9.300;2024-02-16T09:25:50;21.30;49.30
83770;DHT22;73763;48.936;9.300;2024-02-16T09:28:15;21.00;51.40
83770;DHT22;73763;48.936;9.300;2024-02-16T09:30:41;20.60;51.20
83770;DHT22;73763;48.936;9.300;2024-02-16T09:33:06;20.40;51.40
83770;DHT22;73763;48.936;9.300;2024-02-16T09:35:32;20.20;51.40
83770;DHT22;73763;48.936;9.300;2024-02-16T09:37:57;20.10;52.10
83770;DHT22;73763;48.936;9.300;2024-02-16T09:40:23;20.00;53.60
83770;DHT22;73763;48.936;9.300;2024-02-16T09:42:49;20.00;52.40
83770;DHT22;73763;48.936;9.300;2024-02-16T09:45:15;20.20;52.40
83770;DHT22;73763;48.936;9.300;2024-02-16T09:47:42;20.50;52.40
83770;DHT22;73763;48.936;9.300;2024-02-16T09:50:09;20.70;54.60
83770;DHT22;73763;48.936;9.300;2024-02-16T09:52:36;20.80;55.20
83770;DHT22;73763;48.936;9.300;2024-02-16T09:55:02;21.10;55.30
83770;DHT22;73763;48.936;9.300;2024-02-16T09:57:27;21.20;55.10
83770;DHT22;73763;48.936;9.300;2024-02-16T09:59:53;21.40;55.00
83770;DHT22;73763;48.936;9.300;2024-02-16T10:02:18;21.30;54.80
83770;DHT22;73763;48.936;9.300;2024-02-16T10:04:44;21.30;54.70
83770;DHT22;73763;48.936;9.300;2024-02-16T10:07:10;21.30;54.80
83770;DHT22;73763;48.936;9.300;2024-02-16T10:09:35;21.30;52.80
83770;DHT22;73763;48.936;9.300;2024-02-16T10:12:01;21.30;52.00
83770;DHT22;73763;48.936;9.300;2024-02-16T10:14:26;21.40;53.00
83770;DHT22;73763;48.936;9.300;2024-02-16T10:17:02;22.10;51.10
83770;DHT22;73763;48.936;9.300;2024-02-16T10:19:28;23.70;48.20
83770;DHT22;73763;48.936;9.300;2024-02-16T10:21:54;24.80;45.60
83770;DHT22;73763;48.936;9.300;2024-02-16T10:24:30;24.10;45.00
83770;DHT22;73763;48.936;9.300;2024-02-16T10:26:55;23.10;47.00
83770;DHT22;73763;48.936;9.300;2024-02-16T10:29:23;22.50;47.60
83770;DHT22;73763;48.936;9.300;2024-02-16T10:31:50;22.90;46.60
83770;DHT22;73763;48.936;9.300;2024-02-16T10:34:16;23.50;45.20
83770;DHT22;73763;48.936;9.300;2024-02-16T10:36:42;23.60;45.30
83770;DHT22;73763;48.936;9.300;2024-02-16T10:39:08;23.50;45.90
83770;DHT22;73763;48.936;9.300;2024-02-16T10:41:44;23.20;46.30
83770;DHT22;73763;48.936;9.300;2024-02-16T10:44:10;22.90;46.60
83770;DHT22;73763;48.936;9.300;2024-02-16T10:46:36;22.90;47.90
83770;DHT22;73763;48.936;9.300;2024-02-16T10:49:03;23.10;47.10
83770;DHT22;73763;48.936;9.300;2024-02-16T10:51:47;24.00;47.00
83770;DHT22;73763;48.936;9.300;2024-02-16T10:54:17;24.60;44.40
83770;DHT22;73763;48.936;9.300;2024-02-16T10:56:45;24.50;43.90
83770;DHT22;73763;48.936;9.300;2024-02-16T10:59:10;23.80;43.90
83770;DHT22;73763;48.936;9.300;2024-02-16T11:01:43;23.40;44.90
83770;DHT22;73763;48.936;9.300;2024-02-16T11:04:16;22.90;45.80
83770;DHT22;73763;48.936;9.300;2024-02-16T11:06:51;22.60;47.00
83770;DHT22;73763;48.936;9.300;2024-02-16T11:09:29;22.30;47.40
83770;DHT22;73763;48.936;9.300;2024-02-16T11:12:05;22.10;48.20
83770;DHT22;73763;48.936;9.300;2024-02-16T11:14:41;21.60;48.70
83770;DHT22;73763;48.936;9.300;2024-02-16T11:17:11;21.30;50.10
83770;DHT22;73763;48.936;9.300;2024-02-16T11:19:40;21.10;49.60
83770;DHT22;73763;48.936;9.300;2024-02-16T11:22:06;20.80;50.00
83770;DHT22;73763;48.936;9.300;2024-02-16T11:24:32;20.70;51.00
83770;DHT22;73763;48.936;9.300;2024-02-16T11:26:58;20.50;51.80
83770;DHT22;73763;48.936;9.300;2024-02-16T11:29:25;20.60;53.10
83770;DHT22;73763;48.936;9.300;2024-02-16T11:31:51;20.60;53.70
83770;DHT22;73763;48.936;9.300;2024-02-16T11:34:25;20.50;54.10
83770;DHT22;73763;48.936;9.300;2024-02-16T11:36:58;20.60;54.60
83770;DHT22;73763;48.936;9.300;2024-02-16T11:39:25;20.70;54.20
83770;DHT22;73763;48.936;9.300;2024-02-16T11:42:01;20.70;53.50
83770;DHT22;73763;48.936;9.300;2024-02-16T11:44:27;20.90;53.90
83770;DHT22;73763;48.936;9.300;2024-02-16T11:46:54;21.10;51.80
83770;DHT22;73763;48.936;9.300;2024-02-16T11:49:20;21.30;52.00
83770;DHT22;73763;48.936;9.300;2024-02-16T11:51:45;21.40;52.00
83770;DHT22;73763;48.936;9.300;2024-02-16T11:54:11;21.50;51.50
83770;DHT22;73763;48.936;9.300;2024-02-16T11:56:36;21.70;51.20
83770;DHT22;73763;48.936;9.300;2024-02-16T11:59:02;21.70;51.30
83770;DHT22;73763;48.936;9.300;2024-02-16T12:01:27;21.80;50.80
83770;DHT22;73763;48.936;9.300;2024-02-16T12:03:53;21.90;50.10
83770;DHT22;73763;48.936;9.300;2024-02-16T12:06:21;21.80;49.30
83770;DHT22;73763;48.936;9.300;2024-02-16T12:08:47;21.70;49.50
83770;DHT22;73763;48.936;9.300;2024-02-16T12:11:12;21.60;50.50
83770;DHT22;73763;48.936;9.300;2024-02-16T12:13:39;21.50;50.10
83770;DHT22;73763;48.936;9.300;2024-02-16T12:16:05;21.40;50.40
83770;DHT22;73763;48.936;9.300;2024-02-16T12:18:31;21.30;50.40
83770;DHT22;73763;48.936;9.300;2024-02-16T12:21:06;21.20;50.80
83770;DHT22;73763;48.936;9.300;2024-02-16T12:23:35;21.00;51.50
83770;DHT22;73763;48.936;9.300;2024-02-16T12:26:02;21.00;51.70
83770;DHT22;73763;48.936;9.300;2024-02-16T12:28:29;20.80;51.80
83770;DHT22;73763;48.936;9.300;2024-02-16T12:30:55;20.80;52.20
83770;DHT22;73763;48.936;9.300;2024-02-16T12:33:24;20.60;53.20
83770;DHT22;73763;48.936;9.300;2024-02-16T12:35:50;20.20;54.20
83770;DHT22;73763;48.936;9.300;2024-02-16T12:38:16;19.90;55.50
83770;DHT22;73763;48.936;9.300;2024-02-16T12:40:42;19.60;56.10
83770;DHT22;73763;48.936;9.300;2024-02-16T12:43:08;19.40;56.90
83770;DHT22;73763;48.936;9.300;2024-02-16T12:45:33;19.10;58.50
83770;DHT22;73763;48.936;9.300;2024-02-16T12:47:59;18.90;60.00
83770;DHT22;73763;48.936;9.300;2024-02-16T12:50:24;18.70;61.40
83770;DHT22;73763;48.936;9.300;2024-02-16T12:52:50;18.60;62.70
83770;DHT22;73763;48.936;9.300;2024-02-16T12:55:15;18.40;64.10
83770;DHT22;73763;48.936;9.300;2024-02-16T12:57:41;18.30;65.00
83770;DHT22;73763;48.936;9.300;2024-02-16T13:00:07;18.20;66.10
83770;DHT22;73763;48.936;9.300;2024-02-16T13:02:32;18.20;67.00
83770;DHT22;73763;48.936;9.300;2024-02-16T13:04:58;18.20;67.20
83770;DHT22;73763;48.936;9.300;2024-02-16T13:07:24;18.10;68.60
83770;DHT22;73763;48.936;9.300;2024-02-16T13:09:49;18.10;70.30
83770;DHT22;73763;48.936;9.300;2024-02-16T13:12:15;18.00;70.70
83770;DHT22;73763;48.936;9.300;2024-02-16T13:14:40;18.00;71.10
83770;DHT22;73763;48.936;9.300;2024-02-16T13:17:06;18.00;71.80
83770;DHT22;73763;48.936;9.300;2024-02-16T13:19:31;18.00;71.80
83770;DHT22;73763;48.936;9.300;2024-02-16T13:21:57;18.00;71.80
83770;DHT22;73763;48.936;9.300;2024-02-16T13:24:22;18.10;72.50
83770;DHT22;73763;48.936;9.300;2024-02-16T13:26:48;18.20;72.90
83770;DHT22;73763;48.936;9.300;2024-02-16T13:29:13;18.20;72.30
83770;DHT22;73763;48.936;9.300;2024-02-16T13:31:39;18.30;72.60
83770;DHT22;73763;48.936;9.300;2024-02-16T13:34:04;18.30;71.90
83770;DHT22;73763;48.936;9.300;2024-02-16T13:36:30;18.40;72.10
83770;DHT22;73763;48.936;9.300;2024-02-16T13:38:55;18.50;72.20
83770;DHT22;73763;48.936;9.300;2024-02-16T13:41:21;18.50;70.90
83770;DHT22;73763;48.936;9.300;2024-02-16T13:43:47;18.40;72.00
83770;DHT22;73763;48.936;9.300;2024-02-16T13:46:12;18.40;73.70
83770;DHT22;73763;48.936;9.300;2024-02-16T13:48:38;18.40;74.00
83770;DHT22;73763;48.936;9.300;2024-02-16T13:51:03;18.50;74.20
83770;DHT22;73763;48.936;9.300;2024-02-16T13:53:29;18.60;73.00
83770;DHT22;73763;48.936;9.300;2024-02-16T13:55:54;18.50;72.30
83770;DHT22;73763;48.936;9.300;2024-02-16T13:58:20;18.40;73.10
83770;DHT22;73763;48.936;9.300;2024-02-16T14:00:45;18.30;73.00
83770;DHT22;73763;48.936;9.300;2024-02-16T14:03:14;18.30;74.10
83770;DHT22;73763;48.936;9.300;2024-02-16T14:05:40;18.20;74.50
83770;DHT22;73763;48.936;9.300;2024-02-16T14:08:06;18.20;74.50
83770;DHT22;73763;48.936;9.300;2024-02-16T14:10:32;18.10;75.70
83770;DHT22;73763;48.936;9.300;2024-02-16T14:12:58;17.90;75.60
83770;DHT22;73763;48.936;9.300;2024-02-16T14:15:23;17.70;76.40
83770;DHT22;73763;48.936;9.300;2024-02-16T14:17:49;17.60;77.50
83770;DHT22;73763;48.936;9.300;2024-02-16T14:20:14;17.40;78.00
83770;DHT22;73763;48.936;9.300;2024-02-16T14:22:40;17.40;79.90
83770;DHT22;73763;48.936;9.300;2024-02-16T14:25:06;17.30;80.20
83770;DHT22;73763;48.936;9.300;2024-02-16T14:27:31;17.20;79.90
83770;DHT22;73763;48.936;9.300;2024-02-16T14:29:57;17.10;80.50
83770;DHT22;73763;48.936;9.300;2024-02-16T14:32:22;16.90;81.20
83770;DHT22;73763;48.936;9.300;2024-02-16T14:34:48;16.70;82.10
83770;DHT22;73763;48.936;9.300;2024-02-16T14:37:13;16.60;82.80
83770;DHT22;73763;48.936;9.300;2024-02-16T14:39:39;16.60;83.80
83770;DHT22;73763;48.936;9.300;2024-02-16T14:42:05;16.50;84.30
83770;DHT22;73763;48.936;9.300;2024-02-16T14:44:30;16.40;84.50
83770;DHT22;73763;48.936;9.300;2024-02-16T14:46:56;16.30;84.80
83770;DHT22;73763;48.936;9.300;2024-02-16T14:49:21;16.30;84.90
83770;DHT22;73763;48.936;9.300;2024-02-16T14:51:47;16.40;85.00
83770;DHT22;73763;48.936;9.300;2024-02-16T14:54:13;16.30;85.40
83770;DHT22;73763;48.936;9.300;2024-02-16T14:56:38;16.40;84.90
83770;DHT22;73763;48.936;9.300;2024-02-16T14:59:04;16.30;85.00
83770;DHT22;73763;48.936;9.300;2024-02-16T15:01:29;16.30;85.50
83770;DHT22;73763;48.936;9.300;2024-02-16T15:03:55;16.20;85.90
83770;DHT22;73763;48.936;9.300;2024-02-16T15:06:20;16.20;86.40
83770;DHT22;73763;48.936;9.300;2024-02-16T15:08:46;16.10;86.90
83770;DHT22;73763;48.936;9.300;2024-02-16T15:11:11;16.00;87.50
83770;DHT22;73763;48.936;9.300;2024-02-16T15:13:37;15.90;88.30
83770;DHT22;73763;48.936;9.300;2024-02-16T15:16:02;15.90;89.10
83770;DHT22;73763;48.936;9.300;2024-02-16T15:18:28;15.80;88.80
83770;DHT22;73763;48.936;9.300;2024-02-16T15:20:53;15.80;89.30
83770;DHT22;73763;48.936;9.300;2024-02-16T15:23:19;15.80;89.70
83770;DHT22;73763;48.936;9.300;2024-02-16T15:25:44;15.70;89.50
83770;DHT22;73763;48.936;9.300;2024-02-16T15:28:12;15.70;89.60
83770;DHT22;73763;48.936;9.300;2024-02-16T15:30:38;15.70;89.70